Time;durP1;ratioP1;P1;durP2;ratioP2;P2;SDS_P1;SDS_P2;PMS_P1;PMS_P2;Temp;Humidity;BMP_temperature;BMP_pressure;BME280_temperature;BME280_humidity;BME280_pressure;Samples;Min_cycle;Max_cycle;Signal;HPM_P1;HPM_P2
2023/02/02 00:00:04;;;;;;;4.22;1.20;;;21.70;34.70;;;;;;5051637;28;20037;-48
2023/02/02 00:02:31;;;;;;;3.63;1.25;;;21.70;34.70;;;;;;5054466;28;20036;-46
2023/02/02 00:04:57;;;;;;;3.95;1.20;;;21.70;34.70;;;;;;5056936;28;20362;-51
2023/02/02 00:07:23;;;;;;;2.63;1.10;;;21.70;34.80;;;;;;5055864;28;20102;-49
2023/02/02 00:09:49;;;;;;;3.40;0.95;;;21.70;34.90;;;;;;5059875;28;20029;-50
2023/02/02 00:12:15;;;;;;;2.70;1.20;;;21.60;34.90;;;;;;5040499;28;20039;-51
2023/02/02 00:14:41;;;;;;;5.03;1.52;;;21.60;34.90;;;;;;5054177;28;20075;-50
2023/02/02 00:17:09;;;;;;;2.53;1.10;;;21.60;35.00;;;;;;5058311;28;20032;-53
2023/02/02 00:19:35;;;;;;;4.93;1.52;;;21.60;35.00;;;;;;5059833;28;20025;-49
2023/02/02 00:22:01;;;;;;;4.43;1.30;;;21.60;35.00;;;;;;5057595;28;20416;-49
2023/02/02 00:24:27;;;;;;;3.35;1.38;;;21.60;35.10;;;;;;5060006;28;20033;-48
2023/02/02 00:26:55;;;;;;;4.15;0.93;;;21.60;35.10;;;;;;5065881;28;20043;-50
2023/02/02 00:29:25;;;;;;;4.25;1.23;;;21.60;35.20;;;;;;5065019;28;20078;-48
2023/02/02 00:31:51;;;;;;;5.05;1.55;;;21.60;35.20;;;;;;5064326;28;20112;-51
2023/02/02 00:34:18;;;;;;;4.95;1.48;;;21.60;35.30;;;;;;5063451;28;20058;-48
2023/02/02 00:36:47;;;;;;;5.30;1.30;;;21.50;35.30;;;;;;5066426;28;20052;-48
2023/02/02 00:39:24;;;;;;;4.38;1.60;;;21.50;35.30;;;;;;5064154;28;20035;-55
2023/02/02 00:41:49;;;;;;;4.57;1.60;;;21.50;35.30;;;;;;5061274;28;20040;-49
2023/02/02 00:47:01;;;;;;;4.90;1.48;;;21.50;35.50;;;;;;5061912;28;20028;-47
2023/02/02 00:49:27;;;;;;;3.38;1.20;;;21.50;35.50;;;;;;5048340;28;20017;-52
2023/02/02 00:51:53;;;;;;;3.75;1.48;;;21.50;35.60;;;;;;5066935;28;20030;-48
2023/02/02 00:54:18;;;;;;;3.63;1.40;;;21.50;35.60;;;;;;5067101;28;20336;-47
2023/02/02 00:56:44;;;;;;;3.38;1.05;;;21.50;35.60;;;;;;5067790;28;20370;-52
2023/02/02 00:59:10;;;;;;;3.50;1.40;;;21.50;35.60;;;;;;5041181;28;20103;-53
2023/02/02 01:01:36;;;;;;;4.57;1.70;;;21.50;35.60;;;;;;5064687;28;20108;-49
2023/02/02 01:04:02;;;;;;;3.67;1.20;;;21.50;35.60;;;;;;5065263;28;20036;-49
2023/02/02 01:06:28;;;;;;;4.35;1.50;;;21.40;35.60;;;;;;5066520;28;20044;-48
2023/02/02 01:08:53;;;;;;;5.28;1.27;;;21.40;35.70;;;;;;5064430;28;20029;-46
2023/02/02 01:11:19;;;;;;;4.40;1.27;;;21.40;35.70;;;;;;5063190;28;20407;-48
2023/02/02 01:13:45;;;;;;;3.03;1.25;;;21.40;35.70;;;;;;5065089;28;20041;-47
2023/02/02 01:16:12;;;;;;;4.85;1.40;;;21.40;35.80;;;;;;5040960;28;20032;-46
2023/02/02 01:18:39;;;;;;;3.53;1.27;;;21.40;35.80;;;;;;5057911;28;20040;-45
2023/02/02 01:21:09;;;;;;;3.38;1.42;;;21.40;35.80;;;;;;5062462;28;20111;-46
2023/02/02 01:23:36;;;;;;;5.03;1.55;;;21.40;35.90;;;;;;5061931;28;20032;-47
2023/02/02 01:26:04;;;;;;;6.38;1.65;;;21.40;35.90;;;;;;5062524;28;20043;-46
2023/02/02 01:28:31;;;;;;;4.55;1.20;;;21.30;35.90;;;;;;5062110;28;20112;-49
2023/02/02 01:30:57;;;;;;;3.40;1.20;;;21.30;35.90;;;;;;5045674;28;20155;-50
2023/02/02 01:33:24;;;;;;;3.75;1.10;;;21.30;36.00;;;;;;5063822;28;20024;-49
2023/02/02 01:35:54;;;;;;;4.45;1.35;;;21.30;36.00;;;;;;5060281;28;20032;-53
2023/02/02 01:38:23;;;;;;;4.90;1.52;;;21.30;36.00;;;;;;5044526;28;20041;-52
2023/02/02 01:40:54;;;;;;;4.45;1.40;;;21.30;36.00;;;;;;5045994;28;20036;-48
2023/02/02 01:43:48;;;;;;;4.25;1.38;;;21.30;36.00;;;;;;5067825;28;20075;-47
2023/02/02 01:46:16;;;;;;;3.28;1.38;;;21.30;36.00;;;;;;5063040;28;20035;-51
2023/02/02 01:48:50;;;;;;;5.00;1.42;;;21.30;36.10;;;;;;5063082;28;20344;-52
2023/02/02 01:51:19;;;;;;;4.45;1.38;;;21.30;36.10;;;;;;5060892;28;20040;-50
2023/02/02 01:53:48;;;;;;;2.95;1.20;;;21.20;36.00;;;;;;5058787;28;20029;-50
2023/02/02 01:56:23;;;;;;;4.30;1.30;;;21.20;36.00;;;;;;5041651;28;20103;-47
2023/02/02 01:58:49;;;;;;;4.07;1.40;;;21.20;36.20;;;;;;5042996;28;20098;-48
2023/02/02 02:01:16;;;;;;;4.68;1.20;;;21.20;36.20;;;;;;5062216;28;20021;-48
2023/02/02 02:03:42;;;;;;;4.97;1.42;;;21.20;36.80;;;;;;5063088;28;20033;-48
2023/02/02 02:06:12;;;;;;;4.63;1.30;;;21.20;36.10;;;;;;5048748;28;20471;-50
2023/02/02 02:08:46;;;;;;;4.63;1.23;;;21.20;36.20;;;;;;5063051;28;20021;-49
2023/02/02 02:11:13;;;;;;;2.92;1.20;;;21.20;36.20;;;;;;5047000;28;20364;-52
2023/02/02 02:16:41;;;;;;;4.72;1.73;;;21.20;36.20;;;;;;5019789;28;20044;-52
2023/02/02 02:26:32;;;;;;;3.45;1.25;;;21.20;36.20;;;;;;5019173;28;20026;-52
2023/02/02 02:29:02;;;;;;;4.32;1.40;;;21.10;36.20;;;;;;5020931;28;20124;-50
2023/02/02 02:31:34;;;;;;;3.17;1.13;;;21.10;36.20;;;;;;5020238;28;20068;-50
2023/02/02 02:34:35;;;;;;;3.97;1.20;;;21.10;36.20;;;;;;5018676;28;20036;-52
2023/02/02 02:37:12;;;;;;;3.55;1.10;;;21.10;36.20;;;;;;5022733;28;20057;-49
2023/02/02 02:39:47;;;;;;;2.97;0.73;;;21.10;36.20;;;;;;5025056;28;20467;-48
2023/02/02 02:42:19;;;;;;;2.20;0.88;;;21.10;36.20;;;;;;5019237;28;20048;-52
2023/02/02 02:44:48;;;;;;;3.15;1.15;;;21.10;36.20;;;;;;5022178;28;20038;-48
2023/02/02 02:47:14;;;;;;;4.07;0.80;;;21.10;36.20;;;;;;5020190;28;20087;-47
2023/02/02 02:49:48;;;;;;;2.33;0.90;;;21.10;36.30;;;;;;5017372;28;20365;-51
2023/02/02 02:52:14;;;;;;;1.30;0.65;;;21.10;36.30;;;;;;5018768;28;20044;-50
2023/02/02 02:54:48;;;;;;;2.75;0.93;;;21.10;36.30;;;;;;5020471;28;20030;-51
2023/02/02 02:57:39;;;;;;;3.40;0.90;;;21.00;36.30;;;;;;5019349;28;20033;-50
2023/02/02 03:00:27;;;;;;;2.03;0.80;;;21.00;36.30;;;;;;5022571;28;21520;-50
2023/02/02 03:03:01;;;;;;;2.38;0.70;;;21.00;36.30;;;;;;5025311;28;20484;-51
2023/02/02 03:06:00;;;;;;;2.97;0.95;;;21.00;36.30;;;;;;5017628;28;20485;-47
2023/02/02 03:08:39;;;;;;;2.17;0.80;;;21.00;36.40;;;;;;5019204;28;20022;-52
2023/02/02 03:11:07;;;;;;;3.58;0.88;;;21.00;36.40;;;;;;5020145;28;20168;-52
2023/02/02 03:13:33;;;;;;;3.40;1.10;;;21.00;36.40;;;;;;5043943;28;20464;-52
2023/02/02 03:15:59;;;;;;;2.40;0.90;;;21.00;36.50;;;;;;5061930;28;20075;-51
2023/02/02 03:18:31;;;;;;;2.17;1.00;;;21.00;36.50;;;;;;5058726;28;20118;-48
2023/02/02 03:20:58;;;;;;;2.85;1.00;;;21.00;36.60;;;;;;5045558;28;20036;-45
2023/02/02 03:23:24;;;;;;;2.60;0.95;;;21.00;36.60;;;;;;5058489;28;20039;-47
2023/02/02 03:25:50;;;;;;;4.10;1.05;;;21.00;36.60;;;;;;5063798;28;20024;-47
2023/02/02 03:28:17;;;;;;;2.58;0.90;;;21.00;36.70;;;;;;5062632;28;20443;-46
2023/02/02 03:30:44;;;;;;;2.88;1.00;;;20.90;36.60;;;;;;5057778;28;20032;-46
2023/02/02 03:33:12;;;;;;;3.40;1.10;;;21.00;36.70;;;;;;5059774;28;20036;-51
2023/02/02 03:35:37;;;;;;;3.25;0.80;;;20.90;36.60;;;;;;5055377;28;20025;-49
2023/02/02 03:38:03;;;;;;;2.58;1.08;;;20.90;36.70;;;;;;5056538;28;20483;-52
2023/02/02 03:40:29;;;;;;;3.85;1.05;;;20.90;36.70;;;;;;5062023;28;20021;-46
2023/02/02 03:42:55;;;;;;;3.30;1.20;;;20.90;36.70;;;;;;5062978;28;20387;-48
2023/02/02 03:45:22;;;;;;;2.30;0.88;;;20.90;36.80;;;;;;5060202;28;20117;-48
2023/02/02 03:47:48;;;;;;;3.45;1.08;;;20.90;36.80;;;;;;5061890;28;20021;-48
2023/02/02 03:50:13;;;;;;;3.15;1.00;;;20.90;36.80;;;;;;5061903;28;20098;-48
2023/02/02 03:52:39;;;;;;;2.28;1.00;;;20.90;36.80;;;;;;5058047;28;20047;-49
2023/02/02 03:55:06;;;;;;;4.43;1.25;;;20.90;36.80;;;;;;5060041;28;20441;-46
2023/02/02 03:57:32;;;;;;;5.90;1.25;;;20.90;36.80;;;;;;5059903;28;20360;-53
2023/02/02 03:59:57;;;;;;;4.00;1.42;;;20.90;36.90;;;;;;5064378;28;20028;-52
2023/02/02 04:02:23;;;;;;;3.67;1.15;;;20.90;36.90;;;;;;5063491;28;20033;-50
2023/02/02 04:04:49;;;;;;;4.38;1.38;;;20.90;36.90;;;;;;5063917;28;20082;-46
2023/02/02 04:07:15;;;;;;;3.78;1.30;;;20.90;36.90;;;;;;5059308;28;20029;-47
2023/02/02 04:09:41;;;;;;;5.32;1.25;;;20.90;36.90;;;;;;5058649;28;20072;-49
2023/02/02 04:12:07;;;;;;;2.85;0.95;;;20.80;36.90;;;;;;5061043;28;20025;-48
2023/02/02 04:14:32;;;;;;;3.17;1.17;;;20.80;36.90;;;;;;5062025;28;20037;-47
2023/02/02 04:16:58;;;;;;;4.13;1.20;;;20.80;36.90;;;;;;5061870;28;20392;-48
2023/02/02 04:19:24;;;;;;;3.65;1.38;;;20.80;36.90;;;;;;5061732;28;20075;-50
2023/02/02 04:21:50;;;;;;;3.35;1.20;;;20.80;36.90;;;;;;5056479;28;20024;-52
2023/02/02 04:24:16;;;;;;;4.15;1.50;;;20.80;36.90;;;;;;5060078;28;20502;-46
2023/02/02 04:26:42;;;;;;;4.40;1.55;;;20.80;37.00;;;;;;5060062;28;20040;-46
2023/02/02 04:29:07;;;;;;;4.53;1.35;;;20.80;37.00;;;;;;5063887;28;20416;-48
2023/02/02 04:31:33;;;;;;;5.35;1.50;;;20.80;37.00;;;;;;5063637;28;20372;-48
2023/02/02 04:33:59;;;;;;;5.68;1.50;;;20.80;37.00;;;;;;5039540;28;20025;-48
2023/02/02 04:36:25;;;;;;;5.65;1.70;;;20.80;37.00;;;;;;5067554;28;20033;-48
2023/02/02 04:38:52;;;;;;;6.03;1.60;;;20.80;37.00;;;;;;5059660;28;20048;-48
2023/02/02 04:41:18;;;;;;;4.60;1.45;;;20.80;37.00;;;;;;5060342;28;20025;-54
2023/02/02 04:43:45;;;;;;;3.78;1.10;;;20.80;37.00;;;;;;5063271;28;20063;-53
2023/02/02 04:46:11;;;;;;;5.22;1.20;;;20.80;37.10;;;;;;5056765;28;20047;-52
2023/02/02 04:48:37;;;;;;;3.53;1.27;;;20.80;37.10;;;;;;5067397;28;20025;-47
2023/02/02 04:51:06;;;;;;;3.78;0.93;;;20.80;37.10;;;;;;5055799;28;20047;-47
2023/02/02 04:53:32;;;;;;;5.13;1.40;;;20.70;37.00;;;;;;5065213;28;20025;-48
2023/02/02 04:56:07;;;;;;;6.65;1.67;;;20.70;37.10;;;;;;5055063;28;20033;-49
2023/02/02 04:58:33;;;;;;;5.32;1.40;;;20.70;37.10;;;;;;5062614;28;20036;-49
2023/02/02 05:00:59;;;;;;;4.47;1.20;;;20.70;37.10;;;;;;5060207;28;20039;-51
2023/02/02 05:03:25;;;;;;;4.13;1.33;;;20.70;37.10;;;;;;5065017;28;20400;-46
2023/02/02 05:05:50;;;;;;;3.85;1.23;;;20.70;37.10;;;;;;5061444;28;20048;-47
2023/02/02 05:08:16;;;;;;;4.07;1.58;;;20.70;37.10;;;;;;5062885;28;20065;-48
2023/02/02 05:10:42;;;;;;;8.38;1.50;;;20.70;37.20;;;;;;5062766;28;20039;-52
2023/02/02 05:13:08;;;;;;;3.40;1.10;;;20.70;37.80;;;;;;5058434;28;20037;-50
2023/02/02 05:15:34;;;;;;;3.50;1.15;;;20.70;37.20;;;;;;5045027;28;20112;-52
2023/02/02 05:18:00;;;;;;;4.40;1.15;;;20.70;37.20;;;;;;5068726;28;20040;-49
2023/02/02 05:20:26;;;;;;;4.60;1.40;;;20.70;37.20;;;;;;5067635;28;20117;-48
2023/02/02 05:22:52;;;;;;;5.18;1.42;;;20.70;37.20;;;;;;5062273;28;20033;-49
2023/02/02 05:25:18;;;;;;;4.15;1.30;;;20.70;37.20;;;;;;5066665;28;20116;-53
2023/02/02 05:27:45;;;;;;;5.18;1.65;;;20.70;37.20;;;;;;5066477;28;20094;-52
2023/02/02 05:30:12;;;;;;;4.82;1.50;;;20.70;37.20;;;;;;5063924;28;20042;-51
2023/02/02 05:32:39;;;;;;;3.72;1.23;;;20.60;37.20;;;;;;5062952;28;20090;-51
2023/02/02 05:35:06;;;;;;;4.13;1.58;;;20.60;37.20;;;;;;5065277;28;20020;-53
2023/02/02 05:37:31;;;;;;;4.57;1.38;;;20.60;37.20;;;;;;5061472;28;20071;-49
2023/02/02 05:39:57;;;;;;;4.03;1.15;;;20.70;37.30;;;;;;5068646;28;20028;-51
2023/02/02 05:42:23;;;;;;;4.15;1.25;;;20.60;37.30;;;;;;5066534;28;20099;-51
2023/02/02 05:44:49;;;;;;;4.75;1.38;;;20.60;37.30;;;;;;5050815;28;20077;-51
2023/02/02 05:47:15;;;;;;;5.25;1.73;;;20.60;37.30;;;;;;5057322;28;20474;-53
2023/02/02 05:49:40;;;;;;;6.72;1.50;;;20.60;37.30;;;;;;5067399;28;20339;-53
2023/02/02 05:52:07;;;;;;;5.07;1.50;;;20.60;37.30;;;;;;5042542;28;20051;-49
2023/02/02 05:54:32;;;;;;;4.18;1.33;;;20.60;37.30;;;;;;5070449;28;20028;-52
2023/02/02 05:57:00;;;;;;;4.38;1.33;;;20.60;37.30;;;;;;5062904;28;20037;-50
2023/02/02 05:59:28;;;;;;;4.65;1.30;;;20.60;37.40;;;;;;5059276;28;20020;-50
2023/02/02 06:01:53;;;;;;;4.50;1.45;;;20.60;37.40;;;;;;5066800;28;20064;-49
2023/02/02 06:04:19;;;;;;;4.47;1.40;;;20.60;37.40;;;;;;5064528;28;20460;-49
2023/02/02 06:06:46;;;;;;;4.97;1.27;;;20.60;37.40;;;;;;5041123;28;20124;-52
2023/02/02 06:09:13;;;;;;;4.63;1.20;;;20.60;37.50;;;;;;5063861;28;20051;-47
2023/02/02 06:11:39;;;;;;;4.90;1.55;;;20.50;37.40;;;;;;5064835;28;20108;-47
2023/02/02 06:14:05;;;;;;;3.22;1.10;;;20.50;37.40;;;;;;5060563;28;20045;-49
2023/02/02 06:16:31;;;;;;;4.18;1.52;;;20.50;37.40;;;;;;5064557;28;20028;-49
2023/02/02 06:18:56;;;;;;;4.43;1.30;;;20.50;37.50;;;;;;5056684;28;20086;-47
2023/02/02 06:21:23;;;;;;;5.22;1.58;;;20.60;37.50;;;;;;5069417;28;20017;-47
2023/02/02 06:23:50;;;;;;;3.92;1.23;;;20.50;37.50;;;;;;5057519;28;20064;-53
2023/02/02 06:26:17;;;;;;;3.75;1.20;;;20.50;37.50;;;;;;5062146;28;20050;-48
2023/02/02 06:28:46;;;;;;;5.47;1.70;;;20.50;37.60;;;;;;5060256;28;20448;-46
2023/02/02 06:31:12;;;;;;;3.75;1.40;;;20.50;37.60;;;;;;5057034;28;20108;-46
2023/02/02 06:33:38;;;;;;;3.58;1.35;;;20.50;37.60;;;;;;5059925;28;20112;-48
2023/02/02 06:36:05;;;;;;;3.88;1.50;;;20.50;37.60;;;;;;5056062;28;20116;-51
2023/02/02 06:38:32;;;;;;;3.85;1.30;;;20.50;37.70;;;;;;5058070;28;20119;-51
2023/02/02 06:40:59;;;;;;;4.25;1.20;;;20.50;37.70;;;;;;5057966;28;20025;-50
2023/02/02 06:43:25;;;;;;;4.05;1.20;;;20.50;37.80;;;;;;5061738;28;20031;-49
2023/02/02 06:45:51;;;;;;;4.95;1.55;;;20.50;37.80;;;;;;5056804;28;20032;-46
2023/02/02 06:48:17;;;;;;;4.30;1.42;;;20.50;37.80;;;;;;5060095;28;20032;-45
2023/02/02 06:50:42;;;;;;;6.90;1.38;;;20.50;37.90;;;;;;5055471;28;20043;-47
2023/02/02 06:53:08;;;;;;;4.95;1.25;;;20.50;37.90;;;;;;5035855;28;20390;-49
2023/02/02 06:55:34;;;;;;;4.63;1.23;;;20.50;37.90;;;;;;5036415;28;20029;-46
2023/02/02 06:58:00;;;;;;;3.47;1.20;;;20.50;37.90;;;;;;5057075;28;20048;-47
2023/02/02 07:00:27;;;;;;;4.45;1.67;;;20.50;37.90;;;;;;5052900;28;20443;-48
2023/02/02 07:02:53;;;;;;;3.03;1.00;;;20.50;38.00;;;;;;5052692;28;20478;-47
2023/02/02 07:05:20;;;;;;;3.78;0.95;;;20.50;38.00;;;;;;5052717;28;20025;-51
2023/02/02 07:07:46;;;;;;;4.38;1.20;;;20.40;38.00;;;;;;5055878;28;20078;-47
2023/02/02 07:10:13;;;;;;;5.05;1.48;;;20.50;38.00;;;;;;5052654;28;20037;-46
2023/02/02 07:12:39;;;;;;;5.10;1.30;;;20.50;38.10;;;;;;5051650;28;20103;-46
2023/02/02 07:15:06;;;;;;;3.15;1.00;;;20.40;38.00;;;;;;5059216;28;20500;-47
2023/02/02 07:17:32;;;;;;;4.82;1.17;;;20.40;38.10;;;;;;5057042;28;20128;-45
2023/02/02 07:19:59;;;;;;;3.30;1.20;;;20.40;38.10;;;;;;5059837;28;20052;-48
2023/02/02 07:22:25;;;;;;;3.50;1.13;;;20.40;38.20;;;;;;5053833;28;20039;-45
2023/02/02 07:24:50;;;;;;;3.80;0.95;;;20.40;38.20;;;;;;5056064;28;20036;-47
2023/02/02 07:27:16;;;;;;;4.82;1.40;;;20.40;38.30;;;;;;5052226;28;20025;-52
2023/02/02 07:29:42;;;;;;;3.25;1.13;;;20.40;38.30;;;;;;5054159;28;20033;-52
2023/02/02 07:32:08;;;;;;;5.13;1.65;;;20.40;38.30;;;;;;5057070;28;20082;-46
2023/02/02 07:34:37;;;;;;;3.67;1.27;;;20.40;38.30;;;;;;5056435;28;20126;-46
2023/02/02 07:37:03;;;;;;;3.72;0.90;;;20.40;38.40;;;;;;5054799;28;20037;-53
2023/02/02 07:39:29;;;;;;;2.22;0.95;;;20.40;38.40;;;;;;5045884;28;20463;-48
2023/02/02 07:41:55;;;;;;;5.72;1.40;;;20.40;38.40;;;;;;5063287;28;20024;-46
2023/02/02 07:44:29;;;;;;;4.70;1.35;;;20.40;38.50;;;;;;5037108;28;20025;-45
2023/02/02 07:46:55;;;;;;;4.05;1.30;;;20.40;38.50;;;;;;5051779;28;20040;-45
2023/02/02 07:49:21;;;;;;;3.38;1.27;;;20.40;38.60;;;;;;5056915;28;20032;-47
2023/02/02 07:51:48;;;;;;;6.45;1.40;;;20.40;38.60;;;;;;5054495;28;20352;-49
2023/02/02 07:54:14;;;;;;;2.95;1.08;;;20.40;38.60;;;;;;5058598;28;20085;-51
2023/02/02 07:56:40;;;;;;;2.85;1.13;;;20.40;38.70;;;;;;5063907;28;20095;-47
2023/02/02 07:59:06;;;;;;;3.80;1.35;;;20.40;38.70;;;;;;5063182;28;20059;-46
2023/02/02 08:01:32;;;;;;;3.45;1.40;;;20.40;38.70;;;;;;5058941;28;20346;-48
2023/02/02 08:03:59;;;;;;;2.70;1.10;;;20.40;38.70;;;;;;5061655;28;20364;-46
2023/02/02 08:06:43;;;;;;;6.97;1.63;;;20.40;38.70;;;;;;5058584;28;20056;-50
2023/02/02 08:09:09;;;;;;;4.65;1.20;;;20.40;38.70;;;;;;5037442;28;20098;-47
2023/02/02 08:11:36;;;;;;;3.22;1.02;;;20.50;38.70;;;;;;5065159;28;20440;-48
2023/02/02 08:14:03;;;;;;;4.00;1.63;;;20.50;38.70;;;;;;5062487;28;20044;-50
2023/02/02 08:16:30;;;;;;;3.15;1.05;;;20.50;38.70;;;;;;5063169;28;20033;-45
2023/02/02 08:18:57;;;;;;;2.72;1.08;;;20.50;38.60;;;;;;5061860;28;20571;-46
2023/02/02 08:21:24;;;;;;;2.88;1.08;;;20.50;38.60;;;;;;5062220;28;20021;-52
2023/02/02 08:23:51;;;;;;;2.33;1.00;;;20.60;38.70;;;;;;5063121;28;20021;-51
2023/02/02 08:26:25;;;;;;;3.95;1.35;;;20.60;38.70;;;;;;5063408;28;20168;-51
2023/02/02 08:28:54;;;;;;;3.45;1.20;;;20.70;38.70;;;;;;5065170;28;20021;-52
2023/02/02 08:31:34;;;;;;;3.90;1.20;;;20.70;38.60;;;;;;5062787;28;20044;-45
2023/02/02 08:34:00;;;;;;;2.45;1.00;;;20.80;38.50;;;;;;5060436;28;20025;-49
2023/02/02 08:36:29;;;;;;;4.10;1.30;;;20.80;38.40;;;;;;5064565;28;20447;-46
2023/02/02 08:38:55;;;;;;;5.13;1.42;;;20.90;38.40;;;;;;5061820;28;20445;-48
2023/02/02 08:41:23;;;;;;;4.20;1.38;;;20.90;38.30;;;;;;5064298;28;20043;-45
2023/02/02 08:43:50;;;;;;;3.42;1.27;;;21.00;38.20;;;;;;5063263;28;20040;-48
2023/02/02 08:46:17;;;;;;;2.20;1.10;;;21.00;38.10;;;;;;5062652;28;20074;-52
2023/02/02 08:48:44;;;;;;;6.20;1.63;;;21.10;38.10;;;;;;5041750;28;20048;-54
2023/02/02 08:51:13;;;;;;;3.15;1.30;;;21.10;38.00;;;;;;5058177;28;20033;-52
2023/02/02 08:53:41;;;;;;;3.92;1.33;;;21.20;37.90;;;;;;5060132;28;20116;-49
2023/02/02 08:56:13;;;;;;;3.22;1.08;;;21.20;38.00;;;;;;5048240;28;20076;-50
2023/02/02 08:58:43;;;;;;;3.35;1.25;;;21.30;37.80;;;;;;5041985;28;20465;-53
2023/02/02 09:01:23;;;;;;;3.50;1.40;;;21.30;37.70;;;;;;5063774;28;20578;-52
2023/02/02 09:03:53;;;;;;;4.93;1.40;;;21.40;37.60;;;;;;5060978;28;20044;-49
2023/02/02 09:06:20;;;;;;;4.80;1.40;;;21.50;37.60;;;;;;5057796;28;20021;-49
2023/02/02 09:08:46;;;;;;;4.00;1.52;;;21.50;37.40;;;;;;5062219;28;20040;-52
2023/02/02 09:11:17;;;;;;;2.92;1.33;;;21.50;37.30;;;;;;5061489;28;20029;-48
2023/02/02 09:13:44;;;;;;;3.67;1.23;;;21.60;37.30;;;;;;5060829;28;20048;-51
2023/02/02 09:16:12;;;;;;;3.30;1.10;;;21.60;37.20;;;;;;5059459;28;20112;-48
2023/02/02 09:18:39;;;;;;;3.97;1.23;;;21.60;37.10;;;;;;5059338;28;20041;-50
2023/02/02 09:21:10;;;;;;;3.92;0.88;;;21.60;37.10;;;;;;5060414;28;20516;-48
2023/02/02 09:23:38;;;;;;;4.47;1.10;;;21.70;37.00;;;;;;5061505;28;20025;-47
2023/02/02 09:26:13;;;;;;;3.63;1.23;;;21.70;37.00;;;;;;5069757;28;20032;-49
2023/02/02 09:28:41;;;;;;;3.75;1.80;;;21.70;36.90;;;;;;5066941;28;20137;-49
2023/02/02 09:31:08;;;;;;;3.35;1.10;;;21.80;36.80;;;;;;5064305;28;20040;-49
2023/02/02 09:33:34;;;;;;;4.03;1.30;;;21.80;36.80;;;;;;5064566;28;20170;-50
2023/02/02 09:36:09;;;;;;;4.65;1.48;;;21.80;36.70;;;;;;5065267;28;20033;-53
2023/02/02 09:38:36;;;;;;;3.75;1.35;;;21.80;36.70;;;;;;5063763;28;20124;-48
2023/02/02 09:41:31;;;;;;;4.38;1.48;;;21.80;36.60;;;;;;5064864;28;20024;-52
2023/02/02 09:44:13;;;;;;;4.28;1.48;;;21.90;36.60;;;;;;5064634;28;20456;-50
2023/02/02 09:47:13;;;;;;;3.78;1.30;;;21.80;36.50;;;;;;5067259;28;20024;-46
2023/02/02 09:49:45;;;;;;;2.72;1.00;;;21.80;36.40;;;;;;5064119;28;20158;-47
2023/02/02 09:52:20;;;;;;;3.83;1.10;;;21.90;36.50;;;;;;5066173;28;20056;-52
2023/02/02 09:54:49;;;;;;;3.55;1.40;;;21.90;36.50;;;;;;5065517;28;20456;-50
2023/02/02 09:57:26;;;;;;;3.33;1.00;;;21.80;36.40;;;;;;5063606;28;20104;-52
2023/02/02 09:59:53;;;;;;;4.07;1.33;;;21.90;36.40;;;;;;5065409;28;20063;-47
2023/02/02 10:02:43;;;;;;;3.78;1.45;;;21.90;36.40;;;;;;5064815;28;20056;-50
2023/02/02 10:05:19;;;;;;;3.50;1.17;;;21.90;36.40;;;;;;5064299;28;20033;-47
2023/02/02 10:07:51;;;;;;;3.67;1.23;;;21.90;36.40;;;;;;5064415;28;20025;-48
2023/02/02 10:10:25;;;;;;;3.42;1.40;;;21.90;36.40;;;;;;5064314;28;20025;-46
2023/02/02 10:13:20;;;;;;;3.65;1.15;;;21.90;36.30;;;;;;5064673;28;20045;-49
2023/02/02 10:16:05;;;;;;;3.05;1.42;;;21.90;36.30;;;;;;5067279;28;20105;-50
2023/02/02 10:19:09;;;;;;;3.53;1.27;;;21.90;36.30;;;;;;5062763;28;20036;-50
2023/02/02 10:21:50;;;;;;;3.58;1.30;;;21.90;36.30;;;;;;5064363;28;20051;-50
2023/02/02 10:24:23;;;;;;;3.60;1.30;;;21.90;36.30;;;;;;5068415;28;20056;-48
2023/02/02 10:26:55;;;;;;;3.25;1.35;;;21.90;36.30;;;;;;5065028;28;20066;-50
2023/02/02 10:29:21;;;;;;;2.85;1.00;;;21.90;36.30;;;;;;5064318;28;20024;-46
2023/02/02 10:32:23;;;;;;;4.28;1.30;;;21.90;36.30;;;;;;5064894;28;20467;-49
2023/02/02 10:34:59;;;;;;;3.75;1.17;;;21.90;36.20;;;;;;5066440;28;20465;-46
2023/02/02 10:37:41;;;;;;;4.32;1.40;;;21.90;36.20;;;;;;5066331;28;20036;-46
2023/02/02 10:40:24;;;;;;;3.65;1.20;;;21.90;36.20;;;;;;5063563;28;20112;-46
2023/02/02 10:45:50;;;;;;;3.53;1.10;;;21.90;36.20;;;;;;5064327;28;20028;-46
2023/02/02 10:48:20;;;;;;;4.70;1.55;;;21.90;36.20;;;;;;5063653;28;20032;-47
2023/02/02 10:50:54;;;;;;;2.42;1.15;;;21.90;36.20;;;;;;5066485;28;20043;-47
2023/02/02 10:53:21;;;;;;;3.80;1.40;;;21.90;36.20;;;;;;5063428;28;20040;-46
2023/02/02 10:56:07;;;;;;;2.35;0.88;;;22.00;36.20;;;;;;5062576;28;20029;-47
2023/02/02 10:59:04;;;;;;;2.72;1.10;;;21.90;36.10;;;;;;5064497;28;20114;-46
2023/02/02 11:01:30;;;;;;;3.90;1.23;;;21.90;36.10;;;;;;5057423;28;20040;-49
2023/02/02 11:06:49;;;;;;;4.72;1.20;;;22.00;36.20;;;;;;5061009;28;20029;-45
2023/02/02 11:09:28;;;;;;;3.67;1.25;;;22.00;36.20;;;;;;5059521;28;20029;-46
2023/02/02 11:12:03;;;;;;;4.35;1.52;;;22.00;36.10;;;;;;5064689;28;20047;-46
2023/02/02 11:14:29;;;;;;;;;;;22.00;36.10;;;;;;5065164;28;20068;-47
2023/02/02 11:17:05;;;;;;;3.92;1.15;;;22.00;36.10;;;;;;5064002;28;20255;-46
2023/02/02 11:19:33;;;;;;;4.78;1.17;;;22.00;36.10;;;;;;5059912;28;20032;-49
2023/02/02 11:22:03;;;;;;;3.58;1.15;;;22.00;36.10;;;;;;5057915;28;20448;-46
2023/02/02 11:24:43;;;;;;;4.00;1.33;;;22.00;36.10;;;;;;5056073;28;20040;-47
2023/02/02 11:27:31;;;;;;;2.00;0.90;;;22.00;36.20;;;;;;5057039;28;20115;-46
2023/02/02 11:29:59;;;;;;;4.65;1.45;;;22.00;36.30;;;;;;5054240;28;20115;-51
2023/02/02 11:32:29;;;;;;;4.53;1.20;;;22.00;36.40;;;;;;5055193;28;20334;-46
2023/02/02 11:35:07;;;;;;;2.20;1.00;;;22.00;36.50;;;;;;5054047;28;20021;-50
2023/02/02 11:37:35;;;;;;;2.67;1.15;;;22.10;36.60;;;;;;5053550;28;20046;-49
2023/02/02 11:40:27;;;;;;;2.47;0.95;;;22.00;36.60;;;;;;5061623;28;20040;-48
2023/02/02 11:42:55;;;;;;;3.75;1.02;;;22.10;36.70;;;;;;5072848;28;20086;-50
2023/02/02 11:45:42;;;;;;;4.93;1.02;;;22.10;36.80;;;;;;5058375;28;20051;-46
2023/02/02 11:48:46;;;;;;;2.92;0.95;;;22.10;36.80;;;;;;5057809;28;20341;-48
2023/02/02 11:51:23;;;;;;;2.60;1.13;;;22.10;36.80;;;;;;5010959;28;20349;-47
2023/02/02 11:54:06;;;;;;;3.47;1.20;;;22.10;36.90;;;;;;5054969;28;20055;-48
2023/02/02 11:56:35;;;;;;;3.38;1.13;;;22.10;37.00;;;;;;5049115;28;20717;-46
2023/02/02 11:59:02;;;;;;;2.63;0.90;;;22.10;37.00;;;;;;5042784;28;20029;-47
2023/02/02 12:01:30;;;;;;;3.85;1.17;;;22.10;37.00;;;;;;5056671;28;20047;-47
2023/02/02 12:03:58;;;;;;;3.58;1.15;;;22.00;37.00;;;;;;5056817;28;20506;-53
2023/02/02 12:06:32;;;;;;;3.15;1.20;;;22.00;36.90;;;;;;5063549;28;20025;-52
2023/02/02 12:09:02;;;;;;;;;;;22.10;37.00;;;;;;5061615;28;20036;-53
2023/02/02 12:11:34;;;;;;;2.95;0.93;;;22.00;37.00;;;;;;5061375;28;19919;-54
2023/02/02 12:14:26;;;;;;;2.50;0.90;;;22.00;37.00;;;;;;5059513;28;20044;-53
2023/02/02 12:17:31;;;;;;;3.78;1.20;;;22.00;37.00;;;;;;5058378;28;20534;-52
2023/02/02 12:20:08;;;;;;;3.40;1.13;;;22.00;37.00;;;;;;5057891;28;20037;-47
2023/02/02 12:23:03;;;;;;;4.68;1.45;;;22.00;37.00;;;;;;5060695;28;20163;-54
2023/02/02 12:25:41;;;;;;;3.13;1.00;;;22.00;37.00;;;;;;5061375;28;20441;-49
2023/02/02 12:28:19;;;;;;;6.97;1.70;;;22.00;37.00;;;;;;5061728;28;20337;-51
2023/02/02 12:31:20;;;;;;;5.45;1.88;;;22.00;37.00;;;;;;5065057;28;20020;-50
2023/02/02 12:34:05;;;;;;;4.85;2.15;;;22.00;37.00;;;;;;5073860;28;20440;-48
2023/02/02 12:36:52;;;;;;;6.75;3.05;;;21.90;37.00;;;;;;5060160;28;20090;-47
2023/02/02 12:39:39;;;;;;;4.30;2.83;;;21.90;37.00;;;;;;5067656;28;20033;-46
2023/02/02 12:42:16;;;;;;;6.88;3.47;;;21.90;37.10;;;;;;5067909;28;20028;-49
2023/02/02 12:44:51;;;;;;;6.07;3.63;;;21.90;37.10;;;;;;5070970;28;20121;-51
2023/02/02 12:47:31;;;;;;;6.25;3.40;;;21.90;37.10;;;;;;5049840;28;20029;-52
2023/02/02 12:50:38;;;;;;;7.45;4.05;;;21.90;37.20;;;;;;5065644;28;20337;-52
2023/02/02 12:53:29;;;;;;;7.70;4.68;;;21.90;37.40;;;;;;5070011;28;20036;-56
2023/02/02 12:56:19;;;;;;;9.75;5.57;;;21.90;37.60;;;;;;5065756;28;20036;-55
2023/02/02 12:59:19;;;;;;;6.68;4.43;;;22.00;37.80;;;;;;5024137;28;20048;-53
2023/02/02 13:02:25;;;;;;;8.10;4.97;;;22.00;37.80;;;;;;5062474;28;20029;-53
2023/02/02 13:05:00;;;;;;;9.45;6.45;;;22.10;37.80;;;;;;5061299;28;20039;-53
2023/02/02 13:07:35;;;;;;;;;;;22.20;37.60;;;;;;5066911;28;20479;-55
2023/02/02 13:10:21;;;;;;;10.88;7.20;;;22.30;37.60;;;;;;5069579;28;19909;-51
2023/02/02 13:13:07;;;;;;;11.07;7.90;;;22.40;37.30;;;;;;5067247;28;20056;-56
2023/02/02 13:15:36;;;;;;;10.20;7.13;;;22.50;37.20;;;;;;5051168;28;20032;-58
2023/02/02 13:18:17;;;;;;;13.18;8.52;;;22.60;37.40;;;;;;5066925;28;20046;-53
2023/02/02 13:20:51;;;;;;;12.73;8.68;;;22.70;37.70;;;;;;5067802;28;20029;-56
2023/02/02 13:23:27;;;;;;;12.50;8.73;;;22.80;37.90;;;;;;5062039;28;20024;-53
2023/02/02 13:26:05;;;;;;;14.25;9.20;;;22.90;37.90;;;;;;5045321;28;20098;-52